createdAt,value
2023-03-13T00:01:32.601Z,9.99
2023-03-13T00:03:59.137Z,10.06
2023-03-13T00:06:27.132Z,10.03
2023-03-13T00:08:54.502Z,10.04
2023-03-13T00:11:20.987Z,10.04
2023-03-13T00:13:47.936Z,10.00
2023-03-13T00:16:16.261Z,9.98
2023-03-13T00:18:47.858Z,10.04
2023-03-13T00:21:14.848Z,10.02
2023-03-13T00:23:41.432Z,10.00
2023-03-13T00:26:13.331Z,10.02
2023-03-13T00:28:40.483Z,9.96
2023-03-13T00:31:21.546Z,9.94
2023-03-13T00:33:50.397Z,9.92
2023-03-13T00:36:20.464Z,9.91
2023-03-13T00:38:47.291Z,9.95
2023-03-13T00:41:16.492Z,9.90
2023-03-13T00:43:43.870Z,9.92
2023-03-13T00:46:11.707Z,9.96
2023-03-13T00:48:38.357Z,9.86
2023-03-13T00:51:05.746Z,9.89
2023-03-13T00:53:32.326Z,9.81
2023-03-13T00:56:09.744Z,9.81
2023-03-13T00:58:38.717Z,9.84
2023-03-13T01:01:17.288Z,9.82
2023-03-13T01:03:46.430Z,9.84
2023-03-13T01:06:18.314Z,9.87
2023-03-13T01:08:45.961Z,9.84
2023-03-13T01:11:15.407Z,9.84
2023-03-13T01:13:41.972Z,9.83
2023-03-13T01:16:18.876Z,9.87
2023-03-13T01:18:48.009Z,9.81
2023-03-13T01:21:15.155Z,9.81
2023-03-13T01:23:41.717Z,9.82
2023-03-13T01:26:08.811Z,9.77
2023-03-13T01:28:35.735Z,9.73
2023-03-13T01:31:20.998Z,9.74
2023-03-13T01:33:49.190Z,9.74
2023-03-13T01:36:16.738Z,9.73
2023-03-13T01:38:43.308Z,9.71
2023-03-13T01:41:11.970Z,9.70
2023-03-13T01:43:39.251Z,9.67
2023-03-13T01:46:14.821Z,9.70
2023-03-13T01:49:03.323Z,9.65
2023-03-13T01:51:35.586Z,9.69
2023-03-13T01:54:09.511Z,9.74
2023-03-13T01:56:50.614Z,9.73
2023-03-13T01:59:19.555Z,9.75
2023-03-13T02:01:47.881Z,9.73
2023-03-13T02:04:15.589Z,9.77
2023-03-13T02:06:44.181Z,9.76
2023-03-13T02:09:14.140Z,9.80
2023-03-13T02:12:21.877Z,9.83
2023-03-13T02:14:50.253Z,9.84
2023-03-13T02:17:17.081Z,9.87
2023-03-13T02:19:49.219Z,9.83
2023-03-13T02:22:18.704Z,9.89
2023-03-13T02:24:58.805Z,9.87
2023-03-13T02:27:25.348Z,9.89
2023-03-13T02:29:52.147Z,9.87
2023-03-13T02:32:19.438Z,9.88
2023-03-13T02:34:47.562Z,9.89
2023-03-13T02:37:14.926Z,9.89
2023-03-13T02:39:46.495Z,9.91
2023-03-13T02:42:15.106Z,9.93
2023-03-13T02:44:41.960Z,9.98
2023-03-13T02:47:09.860Z,9.97
2023-03-13T02:49:36.758Z,10.00
2023-03-13T02:52:16.630Z,10.02
2023-03-13T02:54:45.800Z,10.05
2023-03-13T02:57:12.362Z,10.04
2023-03-13T02:59:39.123Z,10.03
2023-03-13T03:02:05.570Z,10.07
2023-03-13T03:04:32.183Z,10.09
2023-03-13T03:06:58.683Z,10.08
2023-03-13T03:09:25.128Z,10.06
2023-03-13T03:11:51.558Z,10.12
2023-03-13T03:14:18.054Z,10.10
2023-03-13T03:16:45.276Z,10.14
2023-03-13T03:19:11.772Z,10.16
2023-03-13T03:21:38.402Z,10.20
2023-03-13T03:24:05.625Z,10.18
2023-03-13T03:26:32.329Z,10.21
2023-03-13T03:28:58.804Z,10.23
2023-03-13T03:31:25.472Z,10.26
2023-03-13T03:33:51.928Z,10.29
2023-03-13T03:36:20.750Z,10.31
2023-03-13T03:38:47.366Z,10.35
2023-03-13T03:41:14.362Z,10.38
2023-03-13T03:43:41.312Z,10.40
2023-03-13T03:46:08.179Z,10.44
2023-03-13T03:48:35.290Z,10.44
2023-03-13T03:51:01.714Z,10.50
2023-03-13T03:53:28.918Z,10.49
2023-03-13T03:55:55.719Z,10.54
2023-03-13T03:58:22.204Z,10.57
2023-03-13T04:00:49.112Z,10.58
2023-03-13T04:03:16.816Z,10.56
2023-03-13T04:05:43.753Z,10.61
2023-03-13T04:08:11.648Z,10.64
2023-03-13T04:10:38.163Z,10.68
2023-03-13T04:13:04.648Z,10.71
2023-03-13T04:15:31.131Z,10.74
2023-03-13T04:17:57.645Z,10.75
2023-03-13T04:20:24.179Z,10.79
2023-03-13T04:22:50.641Z,10.82
2023-03-13T04:25:17.593Z,10.82
2023-03-13T04:27:45.252Z,10.93
2023-03-13T04:30:12.138Z,10.97
2023-03-13T04:32:38.755Z,11.02
2023-03-13T04:35:05.455Z,11.08
2023-03-13T04:37:32.128Z,11.11
2023-03-13T04:39:58.615Z,11.10
2023-03-13T04:42:25.143Z,11.13
2023-03-13T04:44:51.574Z,11.15
2023-03-13T04:47:18.185Z,11.11
2023-03-13T04:49:44.744Z,11.12
2023-03-13T04:52:11.224Z,11.15
2023-03-13T04:54:37.801Z,11.11
2023-03-13T04:57:04.467Z,11.11
2023-03-13T04:59:30.947Z,11.13
2023-03-13T05:01:57.425Z,11.16
2023-03-13T05:04:23.915Z,11.19
2023-03-13T05:06:50.398Z,11.17
2023-03-13T05:09:16.951Z,11.21
2023-03-13T05:11:43.451Z,11.19
2023-03-13T05:14:11.436Z,11.24
2023-03-13T05:16:38.839Z,11.25
2023-03-13T05:19:05.517Z,11.25
2023-03-13T05:21:31.993Z,11.26
2023-03-13T05:23:58.538Z,11.30
2023-03-13T05:26:25.128Z,11.31
2023-03-13T05:28:51.563Z,11.30
2023-03-13T05:31:18.096Z,11.31
2023-03-13T05:33:44.695Z,11.28
2023-03-13T05:36:11.119Z,11.32
2023-03-13T05:38:37.759Z,11.33
2023-03-13T05:41:04.420Z,11.35
2023-03-13T05:43:30.832Z,11.28
2023-03-13T05:45:57.245Z,11.34
2023-03-13T05:48:24.084Z,11.37
2023-03-13T05:50:50.500Z,11.37
2023-03-13T05:53:16.944Z,11.40
2023-03-13T05:55:43.678Z,11.40
2023-03-13T05:58:10.170Z,11.41
2023-03-13T06:00:36.625Z,11.40
2023-03-13T06:03:03.070Z,11.41
2023-03-13T06:05:29.470Z,11.47
2023-03-13T06:07:55.925Z,11.45
2023-03-13T06:10:22.429Z,11.45
2023-03-13T06:12:55.874Z,11.49
2023-03-13T06:15:23.187Z,11.51
2023-03-13T06:17:49.631Z,11.52
2023-03-13T06:20:16.345Z,11.56
2023-03-13T06:22:42.899Z,11.62
2023-03-13T06:25:10.164Z,11.64
2023-03-13T06:27:36.663Z,11.66
2023-03-13T06:30:04.074Z,11.65
2023-03-13T06:32:30.628Z,11.66
2023-03-13T06:34:57.247Z,11.68
2023-03-13T06:37:23.772Z,11.71
2023-03-13T06:39:50.316Z,11.75
2023-03-13T06:42:16.775Z,11.75
2023-03-13T06:44:43.521Z,11.76
2023-03-13T06:47:10.031Z,11.75
2023-03-13T06:49:36.573Z,11.80
2023-03-13T06:52:03.061Z,11.82
2023-03-13T06:54:29.509Z,11.83
2023-03-13T06:56:55.934Z,11.87
2023-03-13T06:59:22.365Z,11.86
2023-03-13T07:01:48.899Z,11.86
2023-03-13T07:04:16.405Z,11.83
2023-03-13T07:06:43.308Z,11.84
2023-03-13T07:09:10.550Z,11.81
2023-03-13T07:11:37.033Z,11.88
2023-03-13T07:14:15.992Z,11.91
2023-03-13T07:16:44.311Z,11.92
2023-03-13T07:19:10.890Z,11.98
2023-03-13T07:21:37.374Z,12.01
2023-03-13T07:24:04.183Z,12.01
2023-03-13T07:26:30.700Z,12.02
2023-03-13T07:28:57.488Z,12.03
2023-03-13T07:31:24.654Z,12.01
2023-03-13T07:33:56.261Z,12.04
2023-03-13T07:36:23.049Z,12.03
2023-03-13T07:38:49.799Z,12.03
2023-03-13T07:41:18.525Z,12.15
2023-03-13T07:43:45.160Z,12.20
2023-03-13T07:46:14.199Z,12.30
2023-03-13T07:48:42.428Z,12.31
2023-03-13T07:51:12.807Z,12.36
2023-03-13T07:53:39.368Z,12.36
2023-03-13T07:56:08.841Z,12.40
2023-03-13T07:58:37.519Z,12.40
2023-03-13T08:01:12.638Z,12.41
2023-03-13T08:03:39.609Z,12.35
2023-03-13T08:06:11.163Z,12.37
2023-03-13T08:08:38.163Z,12.37
2023-03-13T08:11:10.636Z,12.38
2023-03-13T08:13:37.796Z,12.36
2023-03-13T08:16:15.152Z,12.40
2023-03-13T08:18:44.652Z,12.40
2023-03-13T08:21:13.543Z,12.35
2023-03-13T08:23:40.183Z,12.35
2023-03-13T08:26:07.966Z,12.37
2023-03-13T08:28:35.460Z,12.38
2023-03-13T08:31:09.314Z,12.38
2023-03-13T08:33:35.851Z,12.38
2023-03-13T08:36:11.767Z,12.35
2023-03-13T08:38:38.665Z,12.33
2023-03-13T08:41:05.247Z,12.35
2023-03-13T08:43:31.728Z,12.38
2023-03-13T08:45:58.182Z,12.39
2023-03-13T08:48:24.631Z,12.37
2023-03-13T08:51:08.653Z,12.34
2023-03-13T08:53:36.292Z,12.39
2023-03-13T08:56:04.403Z,12.39
2023-03-13T08:58:31.351Z,12.45
2023-03-13T09:01:03.186Z,12.46
2023-03-13T09:03:29.939Z,12.47
2023-03-13T09:05:57.849Z,12.45
2023-03-13T09:08:24.792Z,12.49
2023-03-13T09:11:06.516Z,12.52
2023-03-13T09:13:35.424Z,12.56
2023-03-13T09:16:04.496Z,12.61
2023-03-13T09:18:31.729Z,12.64
2023-03-13T09:20:58.260Z,12.67
2023-03-13T09:23:25.663Z,12.72
2023-03-13T09:25:53.554Z,12.79
2023-03-13T09:28:20.049Z,12.84
2023-03-13T09:30:46.523Z,12.94
2023-03-13T09:33:13.009Z,12.92
2023-03-13T09:35:39.814Z,12.97
2023-03-13T09:38:06.899Z,13.01
2023-03-13T09:40:42.240Z,13.11
2023-03-13T09:43:31.871Z,13.10
2023-03-13T09:46:02.826Z,13.18
2023-03-13T09:48:32.586Z,13.28
2023-03-13T09:51:11.097Z,13.33
2023-03-13T09:53:55.440Z,13.65
2023-03-13T09:56:30.648Z,13.78
2023-03-13T09:59:11.188Z,13.91
2023-03-13T10:01:39.220Z,14.21
2023-03-13T10:04:13.345Z,14.43
2023-03-13T10:06:41.920Z,14.49
2023-03-13T10:09:25.646Z,14.58
2023-03-13T10:12:08.182Z,14.58
2023-03-13T10:15:01.494Z,14.51
2023-03-13T10:17:37.834Z,14.56
2023-03-13T10:20:10.628Z,14.70
2023-03-13T10:22:37.924Z,14.81
2023-03-13T10:25:16.555Z,14.97
2023-03-13T10:27:44.701Z,15.13
2023-03-13T10:30:31.840Z,15.18
2023-03-13T10:33:19.047Z,15.15
2023-03-13T10:35:46.292Z,15.26
2023-03-13T10:38:15.807Z,15.33
2023-03-13T10:40:42.940Z,15.64
2023-03-13T10:43:22.509Z,15.81
2023-03-13T10:45:49.132Z,15.82
2023-03-13T10:48:22.478Z,15.87
2023-03-13T10:50:51.963Z,16.00
2023-03-13T10:53:34.008Z,16.10
2023-03-13T10:56:13.469Z,16.12
2023-03-13T10:58:45.938Z,16.01
2023-03-13T11:01:34.598Z,15.93
2023-03-13T11:04:28.569Z,15.81
2023-03-13T11:06:59.483Z,15.75
2023-03-13T11:09:27.620Z,15.76
2023-03-13T11:12:04.709Z,15.71
2023-03-13T11:14:31.197Z,15.75
2023-03-13T11:17:23.072Z,15.69
2023-03-13T11:20:03.535Z,15.73
2023-03-13T11:22:45.290Z,15.86
2023-03-13T11:25:21.897Z,15.95
2023-03-13T11:27:55.288Z,16.02
2023-03-13T11:30:31.591Z,16.12
2023-03-13T11:33:22.672Z,16.32
2023-03-13T11:36:04.779Z,16.45
2023-03-13T11:38:38.395Z,16.61
2023-03-13T11:41:26.716Z,16.65
2023-03-13T11:44:08.390Z,16.71
2023-03-13T11:46:53.911Z,16.74
2023-03-13T11:49:41.731Z,16.77
2023-03-13T11:52:23.324Z,16.78
2023-03-13T11:55:02.025Z,16.83
2023-03-13T11:57:30.870Z,16.76
2023-03-13T12:00:26.825Z,16.79
2023-03-13T12:03:05.724Z,16.84
2023-03-13T12:05:48.575Z,16.71
2023-03-13T12:08:28.374Z,16.83
2023-03-13T12:11:53.366Z,16.90
2023-03-13T12:14:26.649Z,16.88
2023-03-13T12:17:15.870Z,16.77
2023-03-13T12:20:01.692Z,16.69
2023-03-13T12:22:34.020Z,16.57
2023-03-13T12:25:25.320Z,16.61
2023-03-13T12:27:58.504Z,16.63
2023-03-13T12:30:24.903Z,16.64
2023-03-13T12:33:00.094Z,16.61
2023-03-13T12:35:33.326Z,16.57
2023-03-13T12:38:17.528Z,16.51
2023-03-13T12:41:14.290Z,16.54
2023-03-13T12:43:45.250Z,16.52
2023-03-13T12:46:20.304Z,16.66
2023-03-13T12:49:13.303Z,16.69
2023-03-13T12:52:21.333Z,16.77
2023-03-13T12:54:56.778Z,16.75
2023-03-13T12:57:44.515Z,16.72
2023-03-13T13:00:16.972Z,16.72
2023-03-13T13:02:43.576Z,16.82
2023-03-13T13:05:21.448Z,16.90
2023-03-13T13:07:55.736Z,16.93
2023-03-13T13:10:26.261Z,16.98
2023-03-13T13:13:14.408Z,17.09
2023-03-13T13:16:03.117Z,17.24
2023-03-13T13:18:32.808Z,17.26
2023-03-13T13:21:02.192Z,17.33
2023-03-13T13:23:46.514Z,17.31
2023-03-13T13:26:32.910Z,17.37
2023-03-13T13:28:59.890Z,17.43
2023-03-13T13:32:01.494Z,17.52
2023-03-13T13:34:27.902Z,17.62
2023-03-13T13:36:55.547Z,17.61
2023-03-13T13:39:34.082Z,17.64
2023-03-13T13:42:00.680Z,17.73
2023-03-13T13:44:28.633Z,17.85
2023-03-13T13:46:56.968Z,18.13
2023-03-13T13:49:29.367Z,18.39
2023-03-13T13:52:01.536Z,18.41
2023-03-13T13:54:47.133Z,18.39
2023-03-13T13:57:19.902Z,18.27
2023-03-13T13:59:49.440Z,18.48
2023-03-13T14:02:25.005Z,18.64
2023-03-13T14:05:02.292Z,18.81
2023-03-13T14:07:32.644Z,18.81
2023-03-13T14:10:07.836Z,18.81
2023-03-13T14:12:38.665Z,18.71
2023-03-13T14:15:19.953Z,18.58
2023-03-13T14:18:12.328Z,18.58
2023-03-13T14:20:40.534Z,18.54
2023-03-13T14:23:09.843Z,18.46
2023-03-13T14:25:50.552Z,18.10
2023-03-13T14:28:26.225Z,16.52
2023-03-13T14:30:55.203Z,15.59
2023-03-13T14:33:21.742Z,15.06
2023-03-13T14:35:48.783Z,14.85
2023-03-13T14:38:26.440Z,14.46
2023-03-13T14:40:55.432Z,14.45
2023-03-13T14:43:34.054Z,14.12
2023-03-13T14:46:01.265Z,14.25
2023-03-13T14:48:34.364Z,14.05
2023-03-13T14:51:14.848Z,13.98
2023-03-13T14:53:56.544Z,13.91
2023-03-13T14:56:37.952Z,14.20
2023-03-13T14:59:24.366Z,14.10
2023-03-13T15:02:24.366Z,14.29
2023-03-13T15:04:53.607Z,14.17
2023-03-13T15:07:20.535Z,14.32
2023-03-13T15:09:47.457Z,14.28
2023-03-13T15:12:16.694Z,14.29
2023-03-13T15:14:47.948Z,14.32
2023-03-13T15:17:28.397Z,14.38
2023-03-13T15:19:57.196Z,14.45
2023-03-13T15:22:33.451Z,14.27
2023-03-13T15:25:08.138Z,14.38
2023-03-13T15:27:35.167Z,14.38
2023-03-13T15:30:01.745Z,14.33
2023-03-13T15:32:37.528Z,14.33
2023-03-13T15:35:21.382Z,14.21
2023-03-13T15:37:47.877Z,14.31
2023-03-13T15:40:15.947Z,14.34
2023-03-13T15:42:42.687Z,14.34
2023-03-13T15:45:09.549Z,14.38
2023-03-13T15:47:36.040Z,14.42
2023-03-13T15:50:02.484Z,14.48
2023-03-13T15:52:29.268Z,14.41
2023-03-13T15:54:56.547Z,14.47
2023-03-13T15:57:25.715Z,14.36
2023-03-13T15:59:53.234Z,14.42
2023-03-13T16:02:22.124Z,14.46
2023-03-13T16:04:48.902Z,14.54
2023-03-13T16:07:18.521Z,14.48
2023-03-13T16:09:44.999Z,14.47
2023-03-13T16:12:12.081Z,14.53
2023-03-13T16:14:39.185Z,14.49
2023-03-13T16:17:19.765Z,14.48
2023-03-13T16:19:46.897Z,14.34
2023-03-13T16:22:14.170Z,14.23
2023-03-13T16:24:41.305Z,14.20
2023-03-13T16:27:15.590Z,14.30
2023-03-13T16:29:42.559Z,14.24
2023-03-13T16:32:12.814Z,14.36
2023-03-13T16:34:39.364Z,14.28
2023-03-13T16:37:13.575Z,14.29
2023-03-13T16:39:40.036Z,14.20
2023-03-13T16:42:06.481Z,14.30
2023-03-13T16:44:32.946Z,14.20
2023-03-13T16:47:05.950Z,14.18
2023-03-13T16:49:33.010Z,14.14
2023-03-13T16:51:59.426Z,14.05
2023-03-13T16:54:25.862Z,14.10
2023-03-13T16:56:52.323Z,14.05
2023-03-13T16:59:19.554Z,14.11
2023-03-13T17:01:47.079Z,14.14
2023-03-13T17:04:13.602Z,14.06
2023-03-13T17:06:42.410Z,13.97
2023-03-13T17:09:14.514Z,13.83
2023-03-13T17:11:41.450Z,13.87
2023-03-13T17:14:08.100Z,13.75
2023-03-13T17:16:41.439Z,13.72
2023-03-13T17:19:17.056Z,13.72
2023-03-13T17:21:43.708Z,13.71
2023-03-13T17:24:10.231Z,13.59
2023-03-13T17:26:38.563Z,13.56
2023-03-13T17:29:06.332Z,13.55
2023-03-13T17:31:37.360Z,13.40
2023-03-13T17:34:07.683Z,13.43
2023-03-13T17:36:34.931Z,13.36
2023-03-13T17:39:04.413Z,13.19
2023-03-13T17:41:32.844Z,13.40
2023-03-13T17:43:59.699Z,13.49
2023-03-13T17:46:46.529Z,13.42
2023-03-13T17:49:15.545Z,13.26
2023-03-13T17:51:44.413Z,13.30
2023-03-13T17:54:11.247Z,13.24
2023-03-13T17:56:40.238Z,13.15
2023-03-13T17:59:11.724Z,13.02
2023-03-13T18:01:38.272Z,12.92
2023-03-13T18:04:04.766Z,12.85
2023-03-13T18:06:38.744Z,12.79
2023-03-13T18:09:08.577Z,12.70
2023-03-13T18:11:36.404Z,12.66
2023-03-13T18:14:04.237Z,12.55
2023-03-13T18:16:37.605Z,12.45
2023-03-13T18:19:05.686Z,12.46
2023-03-13T18:21:32.268Z,12.38
2023-03-13T18:23:58.841Z,12.33
2023-03-13T18:26:29.740Z,12.35
2023-03-13T18:29:00.237Z,12.37
2023-03-13T18:31:36.063Z,12.28
2023-03-13T18:34:04.380Z,12.31
2023-03-13T18:36:31.577Z,12.38
2023-03-13T18:38:58.500Z,12.13
2023-03-13T18:41:25.667Z,11.97
2023-03-13T18:43:52.315Z,11.88
2023-03-13T18:46:23.626Z,11.88
2023-03-13T18:48:50.685Z,11.97
2023-03-13T18:51:18.792Z,11.92
2023-03-13T18:53:48.921Z,12.00
2023-03-13T18:56:21.517Z,12.12
2023-03-13T18:58:50.594Z,12.16
2023-03-13T19:01:19.942Z,12.14
2023-03-13T19:03:46.767Z,12.06
2023-03-13T19:06:19.298Z,12.17
2023-03-13T19:08:46.626Z,12.22
2023-03-13T19:11:16.943Z,12.22
2023-03-13T19:13:43.615Z,12.03
2023-03-13T19:16:18.727Z,12.20
2023-03-13T19:18:46.292Z,12.03
2023-03-13T19:21:17.845Z,12.05
2023-03-13T19:23:44.329Z,12.09
2023-03-13T19:26:29.301Z,12.12
2023-03-13T19:28:55.788Z,12.15
2023-03-13T19:31:22.932Z,12.07
2023-03-13T19:33:50.405Z,12.11
2023-03-13T19:36:18.585Z,12.08
2023-03-13T19:38:45.457Z,12.11
2023-03-13T19:41:13.516Z,11.94
2023-03-13T19:43:40.762Z,11.89
2023-03-13T19:46:21.041Z,11.77
2023-03-13T19:48:47.544Z,11.68
2023-03-13T19:51:14.712Z,11.70
2023-03-13T19:53:41.619Z,11.71
2023-03-13T19:56:22.759Z,11.69
2023-03-13T19:58:51.381Z,11.74
2023-03-13T20:01:18.444Z,11.64
2023-03-13T20:03:45.926Z,11.64
2023-03-13T20:06:24.091Z,11.49
2023-03-13T20:08:55.193Z,11.60
2023-03-13T20:11:21.768Z,11.35
2023-03-13T20:13:48.309Z,11.37
2023-03-13T20:16:14.877Z,11.43
2023-03-13T20:18:43.385Z,11.20
2023-03-13T20:21:10.705Z,11.33
2023-03-13T20:23:37.148Z,11.35
2023-03-13T20:26:08.368Z,11.40
2023-03-13T20:28:37.882Z,11.24
2023-03-13T20:31:05.041Z,11.20
2023-03-13T20:33:31.926Z,11.21
2023-03-13T20:36:04.237Z,11.12
2023-03-13T20:38:32.502Z,11.03
2023-03-13T20:40:59.156Z,10.95
2023-03-13T20:43:25.870Z,10.93
2023-03-13T20:45:52.826Z,10.97
2023-03-13T20:48:20.603Z,10.83
2023-03-13T20:50:50.986Z,10.76
2023-03-13T20:53:17.551Z,10.64
2023-03-13T20:55:44.023Z,10.56
2023-03-13T20:58:10.510Z,10.55
2023-03-13T21:00:36.955Z,10.58
2023-03-13T21:03:03.562Z,10.52
2023-03-13T21:05:30.068Z,10.60
2023-03-13T21:07:56.520Z,10.53
2023-03-13T21:10:23.003Z,10.50
2023-03-13T21:12:49.446Z,10.47
2023-03-13T21:15:18.381Z,10.42
2023-03-13T21:17:44.824Z,10.51
2023-03-13T21:20:11.776Z,10.46
2023-03-13T21:22:42.260Z,10.64
2023-03-13T21:25:09.777Z,10.58
2023-03-13T21:27:36.864Z,10.47
2023-03-13T21:30:07.778Z,10.55
2023-03-13T21:32:38.655Z,10.47
2023-03-13T21:35:06.382Z,10.56
2023-03-13T21:37:33.175Z,10.57
2023-03-13T21:40:01.807Z,10.51
2023-03-13T21:42:29.363Z,10.54
2023-03-13T21:44:55.861Z,10.54
2023-03-13T21:47:25.197Z,10.51
2023-03-13T21:49:52.207Z,10.43
2023-03-13T21:52:20.536Z,10.44
2023-03-13T21:54:47.008Z,10.35
2023-03-13T21:57:14.163Z,10.37
2023-03-13T21:59:41.083Z,10.51
2023-03-13T22:02:07.749Z,10.37
2023-03-13T22:04:34.146Z,10.36
2023-03-13T22:07:00.563Z,10.31
2023-03-13T22:09:27.417Z,10.27
2023-03-13T22:11:53.981Z,10.34
2023-03-13T22:14:21.680Z,10.32
2023-03-13T22:16:49.890Z,10.34
2023-03-13T22:19:17.444Z,10.37
2023-03-13T22:21:44.524Z,10.29
2023-03-13T22:24:11.560Z,10.33
2023-03-13T22:26:38.477Z,10.30
2023-03-13T22:29:05.228Z,10.34
2023-03-13T22:31:31.702Z,10.28
2023-03-13T22:33:59.601Z,10.30
2023-03-13T22:36:26.067Z,10.29
2023-03-13T22:38:52.645Z,10.34
2023-03-13T22:41:19.433Z,10.33
2023-03-13T22:43:45.905Z,10.31
2023-03-13T22:46:12.720Z,10.29
2023-03-13T22:48:39.698Z,10.32
2023-03-13T22:51:11.330Z,10.39
2023-03-13T22:53:39.341Z,10.33
2023-03-13T22:56:06.602Z,10.43
2023-03-13T22:58:34.018Z,10.38
2023-03-13T23:01:07.644Z,10.33
2023-03-13T23:03:34.221Z,10.31
2023-03-13T23:06:00.747Z,10.37
2023-03-13T23:08:27.237Z,10.38
2023-03-13T23:10:54.012Z,10.39
2023-03-13T23:13:20.535Z,10.46
2023-03-13T23:15:55.725Z,10.44
2023-03-13T23:18:24.327Z,10.36
2023-03-13T23:20:51.143Z,10.44
2023-03-13T23:23:17.684Z,10.44
2023-03-13T23:25:44.122Z,10.42
2023-03-13T23:28:10.570Z,10.37
2023-03-13T23:30:37.214Z,10.37
2023-03-13T23:33:03.779Z,10.40
2023-03-13T23:35:30.366Z,10.42
2023-03-13T23:37:59.738Z,10.42
2023-03-13T23:40:28.203Z,10.45
2023-03-13T23:42:54.662Z,10.44
2023-03-13T23:45:21.117Z,10.46
2023-03-13T23:47:47.901Z,10.45
2023-03-13T23:50:16.411Z,10.49
2023-03-13T23:52:43.193Z,10.44
2023-03-13T23:55:10.345Z,10.46
2023-03-13T23:57:39.950Z,10.46
